Fairbanks, AK

11:31 PM AKDT on September 27, 2016 (GMT -0800)
200 Slater Dr. | | Change Station

Elev 450 ft 64.84 °N, 147.70 °W | Updated 3 minutes ago

Scattered Clouds
Scattered Clouds
33.1 °F
Feels Like 33 °F
N
0.0
Wind Variable Wind from West
Gusts 0.0 mph

Today
High -- | Low -- °F
--% Chance of Precip.
Yesterday
High -- | Low -- °F
Precip. -- in
Pressure 30.27 in
Visibility 9.0 miles
Clouds Scattered Clouds 4600 ft
Windchill 33 °F
Dew Point 31 °F
Humidity 92%
Rainfall in
Snow Depth Not available.
7:50 AM 7:30 PM
Waning Crescent, 7% visible
METAR PAFB 280658Z 07002KT 9SM SCT046 M01/M01 A3025 RMK AO2A SLP251 T10061015
Pressure 30.27 in
Visibility 9.0 miles
Clouds Scattered Clouds 4600 ft
Windchill 33 °F
Dew Point 31 °F
Humidity 92%
Rainfall in
Snow Depth Not available.
7:50 AM 7:30 PM
Waning Crescent, 7% visible
METAR PAFB 280658Z 07002KT 9SM SCT046 M01/M01 A3025 RMK AO2A SLP251 T10061015

10-Day Weather Forecast

Almanac

Astronomy

Sep. 27, 2016 Rise Set
Actual Time
Civil Twilight
Nautical Twilight
Astronomical Twilight
Moon
Length of Visible Light
Length of Day
Tomorrow will be .
, % of the Moon is Illuminated

Today's Extremes

State Highs State Lows

Community

WunderPhotos

Upload Photos

1,942,216 photos uploaded!

WunderBlog® & News

Nearby

Air Quality

  Air Quality AQ Index Pollutant
Not available.

Snow Depth

Station Depth Elevation

Earthquake Activity

City Distance Mag. Time & Date
Minimum magnitude displayed is 2.5.

Coastal Water Temperatures

Place Temperature

Stations

Nearby Weather Stations

Station Location Temp. Windchill Dew Point Humidity Wind Precip. Elev Updated Type
                   

Watches & Warnings

There are currently no watches in effect.